Time;durP1;ratioP1;P1;durP2;ratioP2;P2;SDS_P1;SDS_P2;PMS_P1;PMS_P2;Temp;Humidity;BMP_temperature;BMP_pressure;BME280_temperature;BME280_humidity;BME280_pressure;Samples;Min_cycle;Max_cycle;Signal;HPM_P1;HPM_P2
2022/01/28 00:00:35;;;;;;;40.83;11.82;;;29.90;68.50;;;;;;5126344;28;20028;-53
2022/01/28 00:03:10;;;;;;;51.10;11.70;;;29.90;68.60;;;;;;5126071;28;20015;-55
2022/01/28 00:05:38;;;;;;;61.00;13.65;;;29.90;68.80;;;;;;5110097;28;20024;-55
2022/01/28 00:08:05;;;;;;;37.30;10.25;;;29.80;68.80;;;;;;5084823;28;20044;-50
2022/01/28 00:10:34;;;;;;;33.97;10.70;;;29.80;68.80;;;;;;5085161;28;20036;-54
2022/01/28 00:36:29;;;;;;;41.57;11.43;;;29.70;68.70;;;;;;5069709;28;20050;-53
2022/01/28 00:38:24;;;;;;;46.42;11.15;;;29.50;68.60;;;;;;5073459;28;20056;-49
2022/01/28 00:40:52;;;;;;;38.30;9.90;;;29.50;68.60;;;;;;5047148;28;20024;-56
2022/01/28 00:43:18;;;;;;;38.35;10.32;;;29.40;68.50;;;;;;5064536;28;20556;-54
2022/01/28 00:45:45;;;;;;;22.63;9.23;;;29.40;68.50;;;;;;5064650;28;20315;-50
2022/01/28 00:48:12;;;;;;;26.42;10.30;;;29.40;68.40;;;;;;5075373;28;20229;-52
2022/01/28 00:50:41;;;;;;;15.43;9.07;;;29.40;68.30;;;;;;5065849;28;20091;-44
2022/01/28 00:53:15;;;;;;;21.42;9.38;;;29.40;68.20;;;;;;5083900;28;20016;-57
2022/01/28 00:55:44;;;;;;;16.63;9.10;;;29.30;68.20;;;;;;5082209;28;20248;-52
2022/01/28 00:58:10;;;;;;;19.25;8.88;;;29.40;68.10;;;;;;5084004;28;20060;-54
2022/01/28 01:00:39;;;;;;;17.45;9.15;;;29.30;67.80;;;;;;5064324;28;20024;-59
2022/01/28 01:03:05;;;;;;;21.80;9.55;;;29.30;67.90;;;;;;5092880;28;20032;-52
2022/01/28 01:05:34;;;;;;;21.33;9.40;;;29.30;67.80;;;;;;5077600;28;20020;-54
2022/01/28 01:08:04;;;;;;;15.65;9.45;;;29.30;67.70;;;;;;5079671;28;20418;-54
2022/01/28 01:10:34;;;;;;;15.27;8.75;;;29.20;67.80;;;;;;5090788;28;20020;-55
2022/01/28 01:13:03;;;;;;;16.20;9.05;;;29.30;67.80;;;;;;5095894;28;20035;-53
2022/01/28 01:15:37;;;;;;;22.50;9.35;;;29.30;67.50;;;;;;5104196;28;20303;-54
2022/01/28 01:18:18;;;;;;;17.05;9.07;;;29.30;67.50;;;;;;5085725;28;20020;-59
2022/01/28 01:26:10;;;;;;;15.68;9.30;;;29.20;67.30;;;;;;5091068;28;20046;-53
2022/01/28 01:28:40;;;;;;;13.80;9.60;;;29.20;67.10;;;;;;5114924;28;20020;-54
2022/01/28 01:31:12;;;;;;;16.55;9.10;;;29.10;67.10;;;;;;5124121;28;20096;-54
2022/01/28 01:33:47;;;;;;;14.85;9.45;;;29.10;67.30;;;;;;5124339;28;20019;-55
2022/01/28 01:36:16;;;;;;;17.40;9.85;;;29.10;67.10;;;;;;5117957;28;20054;-56
2022/01/28 01:38:43;;;;;;;13.95;9.85;;;29.10;66.90;;;;;;5106535;28;20027;-54
2022/01/28 01:41:18;;;;;;;15.90;10.00;;;29.10;66.70;;;;;;5106795;28;20018;-55
2022/01/28 01:44:24;;;;;;;16.20;10.63;;;29.10;66.40;;;;;;5106278;28;20046;-53
2022/01/28 01:52:26;;;;;;;18.23;11.02;;;29.10;66.10;;;;;;5109472;28;20064;-54
2022/01/28 01:54:54;;;;;;;19.60;11.75;;;29.10;66.20;;;;;;5124772;28;20034;-54
2022/01/28 01:57:21;;;;;;;13.45;10.82;;;29.10;65.90;;;;;;5106419;28;20045;-54
2022/01/28 01:59:48;;;;;;;30.35;11.85;;;29.20;66.00;;;;;;5124679;28;20249;-54
2022/01/28 02:02:15;;;;;;;14.73;11.20;;;29.10;65.60;;;;;;5106495;28;20028;-53
2022/01/28 02:04:41;;;;;;;17.20;11.18;;;29.10;65.50;;;;;;5124640;28;20298;-57
2022/01/28 02:07:09;;;;;;;17.83;11.68;;;29.10;65.40;;;;;;5124482;28;20047;-53
2022/01/28 02:09:35;;;;;;;17.15;11.48;;;29.10;65.40;;;;;;5124271;28;20071;-55
2022/01/28 02:12:02;;;;;;;24.65;11.63;;;29.10;65.30;;;;;;5124090;28;20022;-53
2022/01/28 02:14:29;;;;;;;23.52;11.70;;;29.20;65.30;;;;;;5106193;28;20072;-55
2022/01/28 02:16:56;;;;;;;20.33;11.13;;;29.10;64.80;;;;;;5105992;28;20030;-55
2022/01/28 02:19:23;;;;;;;21.52;11.38;;;29.10;64.80;;;;;;5106182;28;20319;-52
2022/01/28 02:21:52;;;;;;;19.67;11.63;;;29.10;65.00;;;;;;5098246;28;20160;-57
2022/01/28 02:24:25;;;;;;;16.23;11.48;;;29.10;65.10;;;;;;5116904;28;20033;-58
2022/01/28 02:26:52;;;;;;;19.33;11.57;;;29.00;64.70;;;;;;5092449;28;20024;-59
2022/01/28 02:29:28;;;;;;;15.35;11.90;;;29.10;64.60;;;;;;5097369;28;20016;-56
2022/01/28 02:32:02;;;;;;;18.13;11.48;;;29.10;64.70;;;;;;5091202;28;20292;-54
2022/01/28 02:34:29;;;;;;;16.60;11.15;;;29.00;64.50;;;;;;5091074;28;20024;-54
2022/01/28 02:36:59;;;;;;;14.18;10.82;;;29.00;64.40;;;;;;5098838;28;20260;-52
2022/01/28 02:39:26;;;;;;;19.98;11.13;;;29.00;64.50;;;;;;5107193;28;20211;-54
2022/01/28 02:42:00;;;;;;;19.38;10.77;;;29.00;64.40;;;;;;5107296;28;20016;-54
2022/01/28 02:44:47;;;;;;;17.92;11.20;;;29.00;64.00;;;;;;5093113;28;20026;-53
2022/01/28 02:47:17;;;;;;;19.52;12.18;;;29.00;64.00;;;;;;5099058;28;20020;-54
2022/01/28 02:49:45;;;;;;;16.65;11.32;;;29.00;63.80;;;;;;5098518;28;20047;-52
2022/01/28 02:52:20;;;;;;;13.80;11.18;;;28.90;63.30;;;;;;5100016;28;20015;-52
2022/01/28 02:54:49;;;;;;;20.42;11.85;;;28.90;63.20;;;;;;5107251;28;20016;-55
2022/01/28 02:57:21;;;;;;;17.33;12.05;;;28.90;63.20;;;;;;5119534;28;20019;-53
2022/01/28 02:59:47;;;;;;;13.32;10.70;;;28.90;62.70;;;;;;5127651;28;20027;-52
2022/01/28 03:02:14;;;;;;;14.98;11.20;;;28.80;63.00;;;;;;5127382;28;20364;-53
2022/01/28 03:07:07;;;;;;;16.83;10.95;;;28.90;62.80;;;;;;5098988;28;20085;-52
2022/01/28 03:10:12;;;;;;;15.05;10.90;;;28.90;62.80;;;;;;5084552;28;20119;-54
2022/01/28 03:12:33;;;;;;;17.67;11.00;;;28.90;63.00;;;;;;5100087;28;20022;-54
2022/01/28 03:15:04;;;;;;;14.63;11.10;;;28.90;63.10;;;;;;5107063;28;20074;-54
2022/01/28 03:20:30;;;;;;;16.33;11.15;;;28.80;63.00;;;;;;5106830;28;20016;-54
2022/01/28 03:22:49;;;;;;;14.10;10.50;;;28.80;63.10;;;;;;5106019;28;20044;-54
2022/01/28 03:25:16;;;;;;;12.38;10.43;;;28.90;63.30;;;;;;5106837;28;20246;-53
2022/01/28 03:27:52;;;;;;;17.17;10.80;;;28.80;63.30;;;;;;5106268;28;20020;-56
2022/01/28 03:30:19;;;;;;;13.27;11.02;;;28.90;63.60;;;;;;5088522;28;20049;-54
2022/01/28 03:32:46;;;;;;;13.52;10.23;;;28.90;63.70;;;;;;5106376;28;20012;-53
2022/01/28 03:35:17;;;;;;;13.98;10.63;;;28.90;63.80;;;;;;5106777;28;20030;-53
2022/01/28 03:37:44;;;;;;;15.48;10.73;;;28.80;63.80;;;;;;5106517;28;20212;-54
2022/01/28 03:40:11;;;;;;;14.40;10.80;;;28.80;63.70;;;;;;5106816;28;20028;-52
2022/01/28 03:42:38;;;;;;;12.20;10.43;;;28.80;63.60;;;;;;5106107;28;20039;-53
2022/01/28 03:45:06;;;;;;;16.38;10.43;;;28.80;63.50;;;;;;5106297;28;20028;-54
2022/01/28 03:47:33;;;;;;;13.00;10.02;;;28.80;63.50;;;;;;5088295;28;20035;-52
2022/01/28 03:49:59;;;;;;;14.13;10.48;;;28.80;63.50;;;;;;5090594;28;20227;-53
2022/01/28 03:52:26;;;;;;;13.80;10.27;;;28.70;63.50;;;;;;5101110;28;20023;-56
2022/01/28 03:54:53;;;;;;;13.57;10.73;;;28.70;63.50;;;;;;5106211;28;20065;-53
2022/01/28 03:57:19;;;;;;;18.33;10.65;;;28.70;63.60;;;;;;5106125;28;20023;-54
2022/01/28 03:59:46;;;;;;;12.57;10.45;;;28.70;63.60;;;;;;5106667;28;20027;-53
2022/01/28 04:02:13;;;;;;;18.90;11.00;;;28.70;63.60;;;;;;5106220;28;20031;-57
2022/01/28 04:12:39;;;;;;;16.40;11.57;;;28.60;63.40;;;;;;5106200;28;20080;-52
2022/01/28 04:15:21;;;;;;;16.15;11.35;;;28.60;63.30;;;;;;5106063;28;20024;-52
2022/01/28 04:17:49;;;;;;;15.53;11.07;;;28.50;63.10;;;;;;5105534;28;20020;-56
2022/01/28 04:20:15;;;;;;;16.30;11.93;;;28.50;62.00;;;;;;5105565;28;20441;-53
2022/01/28 04:22:42;;;;;;;17.05;12.25;;;28.50;62.00;;;;;;5105236;28;20020;-53
2022/01/28 04:25:09;;;;;;;20.48;12.25;;;28.50;61.60;;;;;;5105795;28;20049;-53
2022/01/28 04:27:36;;;;;;;17.33;12.75;;;28.50;61.30;;;;;;5105387;28;20027;-53
2022/01/28 04:30:03;;;;;;;18.95;13.25;;;28.50;60.90;;;;;;5105260;28;20036;-57
2022/01/28 04:32:31;;;;;;;21.27;12.70;;;28.50;61.20;;;;;;5087058;28;20309;-53
2022/01/28 04:34:59;;;;;;;25.50;13.00;;;28.50;60.80;;;;;;5105232;28;20032;-53
2022/01/28 04:40:16;;;;;;;18.48;12.95;;;28.50;60.40;;;;;;5101915;28;20020;-57
2022/01/28 04:45:34;;;;;;;19.48;13.52;;;28.50;60.60;;;;;;5105442;28;20024;-52
2022/01/28 04:50:44;;;;;;;19.33;13.60;;;28.40;60.70;;;;;;5084977;28;20013;-53
2022/01/28 05:01:02;;;;;;;18.42;12.80;;;28.40;61.30;;;;;;5083896;28;20016;-56
2022/01/28 05:06:51;;;;;;;20.80;12.95;;;28.30;61.20;;;;;;5084205;28;20304;-53
2022/01/28 05:28:22;;;;;;;21.83;15.98;;;28.20;60.80;;;;;;5083855;28;20084;-55
2022/01/28 05:30:49;;;;;;;22.73;16.63;;;28.10;60.40;;;;;;5083020;28;20025;-54
2022/01/28 05:33:16;;;;;;;24.85;18.35;;;28.10;60.50;;;;;;5082097;28;20204;-55
2022/01/28 05:35:42;;;;;;;25.75;18.35;;;28.00;60.00;;;;;;5082540;28;20452;-56
2022/01/28 05:38:09;;;;;;;24.98;17.88;;;28.00;59.80;;;;;;5082068;28;20074;-61
2022/01/28 05:40:36;;;;;;;26.08;17.85;;;28.10;59.90;;;;;;5082547;28;20047;-54
2022/01/28 05:43:02;;;;;;;26.85;17.25;;;28.10;60.10;;;;;;5082273;28;20190;-56
2022/01/28 05:45:29;;;;;;;22.80;16.80;;;28.00;60.30;;;;;;5082837;28;20088;-54
2022/01/28 05:47:57;;;;;;;22.65;16.17;;;28.10;60.40;;;;;;5083623;28;20254;-53
2022/01/28 05:50:24;;;;;;;24.23;15.48;;;28.10;60.50;;;;;;5084485;28;20192;-55
2022/01/28 05:52:50;;;;;;;19.58;14.50;;;28.10;60.90;;;;;;5084168;28;20021;-54
2022/01/28 05:55:17;;;;;;;20.10;14.02;;;28.10;61.20;;;;;;5084343;28;20062;-53
2022/01/28 05:57:44;;;;;;;18.48;13.25;;;28.00;61.70;;;;;;5083572;28;20020;-55
2022/01/28 06:00:11;;;;;;;16.92;12.10;;;28.10;62.30;;;;;;5084045;28;20028;-57
2022/01/28 06:02:38;;;;;;;17.08;11.82;;;28.00;62.70;;;;;;5083661;28;20316;-55
2022/01/28 06:05:05;;;;;;;15.90;11.57;;;28.00;63.10;;;;;;5084112;28;20300;-54
2022/01/28 06:07:31;;;;;;;12.45;10.18;;;28.00;63.40;;;;;;5083562;28;20024;-57
2022/01/28 06:09:58;;;;;;;13.65;9.63;;;28.00;64.20;;;;;;5083987;28;20036;-53
2022/01/28 06:12:24;;;;;;;13.00;8.80;;;28.00;64.00;;;;;;5085013;28;20016;-52
2022/01/28 06:14:51;;;;;;;12.45;8.98;;;28.00;64.20;;;;;;5088065;28;20066;-52
2022/01/28 06:17:17;;;;;;;10.20;8.32;;;27.90;64.30;;;;;;5087230;28;20027;-53
2022/01/28 06:19:44;;;;;;;10.52;8.00;;;27.90;64.50;;;;;;5087758;28;20096;-53
2022/01/28 06:22:11;;;;;;;8.55;7.72;;;27.90;64.40;;;;;;5069704;28;20123;-53
2022/01/28 06:24:37;;;;;;;9.50;7.45;;;27.90;64.40;;;;;;5087713;28;20032;-53
2022/01/28 06:27:04;;;;;;;10.40;7.45;;;27.80;64.40;;;;;;5087093;28;20228;-62
2022/01/28 06:29:31;;;;;;;12.52;7.68;;;27.80;64.40;;;;;;5069701;28;20025;-58
2022/01/28 06:31:57;;;;;;;10.68;7.70;;;27.80;64.50;;;;;;5087254;28;20309;-57
2022/01/28 06:34:24;;;;;;;11.25;7.30;;;27.80;64.70;;;;;;5087125;28;20101;-53
2022/01/28 06:36:50;;;;;;;10.13;7.35;;;27.80;65.00;;;;;;5087558;28;20227;-54
2022/01/28 06:39:17;;;;;;;9.18;7.32;;;27.70;65.10;;;;;;5086710;28;20050;-53
2022/01/28 06:41:45;;;;;;;8.30;6.78;;;27.70;65.10;;;;;;5087203;28;20024;-55
2022/01/28 06:44:11;;;;;;;8.80;6.28;;;27.70;65.10;;;;;;5086958;28;20028;-54
2022/01/28 06:46:38;;;;;;;8.13;6.72;;;27.70;65.00;;;;;;5086894;28;20205;-53
2022/01/28 06:49:05;;;;;;;14.57;7.30;;;27.70;64.90;;;;;;5087002;28;20084;-53
2022/01/28 06:51:34;;;;;;;8.60;6.95;;;27.70;64.60;;;;;;5086661;28;20020;-59
2022/01/28 06:54:02;;;;;;;10.10;6.78;;;27.70;64.50;;;;;;5087084;28;20029;-56
2022/01/28 06:56:28;;;;;;;8.18;6.47;;;27.70;64.40;;;;;;5086560;28;20071;-54
2022/01/28 06:58:55;;;;;;;8.50;6.55;;;27.70;64.00;;;;;;5086796;28;20079;-53
2022/01/28 07:01:21;;;;;;;9.55;6.97;;;27.70;64.10;;;;;;5086573;28;20066;-53
2022/01/28 07:03:48;;;;;;;9.05;6.80;;;27.70;63.50;;;;;;5087092;28;20087;-57
2022/01/28 07:06:15;;;;;;;8.07;6.28;;;27.60;63.70;;;;;;5086327;28;20208;-56
2022/01/28 07:08:41;;;;;;;7.88;6.30;;;27.60;62.90;;;;;;5086365;28;20060;-55
2022/01/28 07:11:09;;;;;;;10.95;6.40;;;27.60;63.00;;;;;;5086361;28;20344;-57
2022/01/28 07:13:35;;;;;;;7.75;6.13;;;27.60;62.80;;;;;;5086149;28;20059;-53
2022/01/28 07:16:02;;;;;;;7.50;6.10;;;27.60;62.60;;;;;;5086962;28;20027;-53
2022/01/28 07:18:29;;;;;;;8.45;5.95;;;27.60;62.30;;;;;;5086657;28;20091;-53
2022/01/28 07:20:55;;;;;;;8.15;6.28;;;27.60;62.20;;;;;;5086133;28;20031;-54
2022/01/28 07:23:22;;;;;;;10.70;6.40;;;27.50;61.70;;;;;;5085512;28;20024;-53
2022/01/28 07:25:48;;;;;;;10.43;6.40;;;27.50;61.50;;;;;;5086207;28;20082;-54
2022/01/28 07:28:15;;;;;;;9.45;6.05;;;27.50;61.30;;;;;;5086195;28;20029;-54
2022/01/28 07:30:42;;;;;;;7.85;5.80;;;27.50;61.00;;;;;;5086371;28;20021;-60
2022/01/28 07:33:10;;;;;;;6.00;5.40;;;27.50;60.60;;;;;;5086121;28;20269;-57
2022/01/28 07:35:37;;;;;;;8.90;5.55;;;27.50;60.30;;;;;;5086616;28;20028;-56
2022/01/28 07:38:04;;;;;;;8.23;5.63;;;27.50;60.30;;;;;;5085781;28;20091;-54
2022/01/28 07:40:30;;;;;;;8.68;5.55;;;27.50;59.90;;;;;;5085969;28;20028;-57
2022/01/28 07:42:57;;;;;;;7.95;5.80;;;27.60;59.90;;;;;;5085949;28;20047;-54
2022/01/28 07:45:24;;;;;;;7.38;5.40;;;27.50;59.60;;;;;;5086192;28;20300;-55
2022/01/28 07:47:52;;;;;;;8.00;5.57;;;27.50;59.60;;;;;;5085530;28;20328;-57
2022/01/28 07:50:19;;;;;;;11.65;5.60;;;27.60;59.50;;;;;;5085961;28;20067;-54
2022/01/28 07:52:46;;;;;;;6.55;5.30;;;27.60;59.50;;;;;;5085528;28;20142;-54
2022/01/28 07:55:14;;;;;;;7.93;5.28;;;27.50;59.30;;;;;;5085724;28;20021;-57
2022/01/28 07:57:41;;;;;;;8.43;5.43;;;27.60;59.50;;;;;;5085746;28;20077;-54
2022/01/28 08:00:10;;;;;;;6.18;5.35;;;27.60;59.60;;;;;;5086030;28;20025;-58
2022/01/28 08:02:37;;;;;;;8.27;5.50;;;27.50;59.50;;;;;;5085479;28;20052;-54
2022/01/28 08:05:04;;;;;;;7.95;5.32;;;27.60;59.60;;;;;;5085899;28;20021;-55
2022/01/28 08:07:30;;;;;;;8.82;5.45;;;27.50;59.70;;;;;;5084978;28;20070;-55
2022/01/28 08:09:57;;;;;;;8.48;5.85;;;27.50;59.90;;;;;;5085412;28;20070;-54
2022/01/28 08:12:24;;;;;;;6.80;5.65;;;27.50;60.00;;;;;;5085365;28;20016;-54
2022/01/28 08:14:50;;;;;;;12.57;6.50;;;27.50;60.20;;;;;;5085609;28;20297;-56
2022/01/28 08:17:17;;;;;;;10.38;6.85;;;27.40;60.40;;;;;;5084893;28;20059;-58
2022/01/28 08:19:44;;;;;;;10.20;7.18;;;27.40;60.50;;;;;;5085228;28;20028;-55
2022/01/28 08:22:11;;;;;;;10.25;7.65;;;27.40;60.50;;;;;;5085348;28;20024;-57
2022/01/28 08:24:37;;;;;;;11.98;8.45;;;27.40;60.40;;;;;;5085147;28;20028;-56
2022/01/28 08:27:04;;;;;;;12.98;8.27;;;27.40;60.30;;;;;;5084792;28;20017;-56
2022/01/28 08:29:31;;;;;;;15.02;9.25;;;27.40;60.20;;;;;;5085125;28;20051;-61
2022/01/28 08:31:57;;;;;;;14.68;10.20;;;27.30;59.90;;;;;;5085028;28;20024;-55
2022/01/28 08:34:24;;;;;;;15.80;10.38;;;27.30;60.00;;;;;;5085189;28;20027;-56
2022/01/28 08:36:50;;;;;;;17.80;11.45;;;27.30;59.60;;;;;;5084564;28;20020;-55
2022/01/28 08:39:17;;;;;;;17.52;11.57;;;27.30;59.50;;;;;;5084497;28;20064;-54
2022/01/28 08:41:44;;;;;;;16.85;12.13;;;27.30;59.10;;;;;;5084885;28;20059;-56
2022/01/28 08:44:10;;;;;;;20.55;12.88;;;27.30;59.10;;;;;;5084667;28;20029;-54
2022/01/28 08:46:37;;;;;;;17.77;12.15;;;27.30;59.00;;;;;;5084203;28;20031;-54
2022/01/28 08:49:03;;;;;;;20.13;12.73;;;27.30;58.90;;;;;;5084723;28;20028;-56
2022/01/28 08:51:30;;;;;;;20.67;13.30;;;27.20;58.90;;;;;;5084675;28;20350;-54
2022/01/28 08:53:57;;;;;;;18.23;13.20;;;27.20;58.50;;;;;;5084388;28;20084;-57
2022/01/28 08:56:23;;;;;;;18.30;13.43;;;27.20;58.60;;;;;;5084927;28;20027;-54
2022/01/28 08:58:50;;;;;;;16.33;13.15;;;27.20;58.40;;;;;;5084139;28;20039;-54
2022/01/28 09:01:16;;;;;;;19.88;13.85;;;27.20;58.60;;;;;;5084647;28;20027;-57
2022/01/28 09:03:44;;;;;;;20.30;13.52;;;27.20;58.50;;;;;;5084317;28;20031;-54
2022/01/28 09:06:11;;;;;;;20.27;13.48;;;27.20;58.50;;;;;;5084148;28;20044;-55
2022/01/28 09:08:39;;;;;;;19.17;13.57;;;27.20;58.50;;;;;;5084190;28;20102;-54
2022/01/28 09:11:31;;;;;;;18.52;13.48;;;27.20;58.30;;;;;;5084365;28;20123;-54
2022/01/28 09:13:55;;;;;;;20.63;13.15;;;27.10;58.50;;;;;;5084178;28;20091;-56
2022/01/28 09:16:22;;;;;;;20.48;12.90;;;27.10;58.60;;;;;;5084304;28;20025;-57
2022/01/28 09:18:49;;;;;;;18.80;13.20;;;27.10;58.80;;;;;;5084482;28;20016;-57
2022/01/28 09:21:16;;;;;;;17.15;12.27;;;27.10;58.90;;;;;;5083986;28;20031;-55
2022/01/28 09:23:42;;;;;;;18.60;11.88;;;27.10;59.20;;;;;;5084232;28;20240;-54
2022/01/28 09:26:09;;;;;;;20.42;12.23;;;27.00;59.40;;;;;;5084279;28;20020;-54
2022/01/28 09:28:35;;;;;;;17.98;11.23;;;27.10;59.80;;;;;;5084073;28;20025;-54
2022/01/28 09:31:02;;;;;;;21.73;11.57;;;27.10;60.20;;;;;;5084455;28;20027;-58
2022/01/28 09:33:28;;;;;;;19.55;11.93;;;27.00;60.50;;;;;;5083931;28;20024;-59
2022/01/28 09:35:55;;;;;;;21.90;11.45;;;27.00;60.80;;;;;;5084831;28;20092;-53
2022/01/28 09:38:21;;;;;;;17.85;11.63;;;26.90;61.00;;;;;;5083810;28;20040;-55
2022/01/28 09:40:49;;;;;;;15.35;10.25;;;26.90;61.00;;;;;;5084279;28;20032;-57
2022/01/28 09:43:16;;;;;;;19.45;12.07;;;26.90;61.00;;;;;;5084067;28;20031;-62
2022/01/28 09:45:48;;;;;;;18.40;12.07;;;26.90;61.10;;;;;;5084132;28;20208;-56
2022/01/28 09:48:17;;;;;;;15.55;11.70;;;26.90;61.10;;;;;;5086740;28;20378;-54
2022/01/28 09:50:46;;;;;;;15.23;11.70;;;26.90;61.10;;;;;;5087662;28;20036;-54
2022/01/28 09:53:13;;;;;;;19.50;11.90;;;26.90;61.10;;;;;;5087818;28;20328;-54
2022/01/28 09:55:40;;;;;;;21.52;12.18;;;26.90;61.10;;;;;;5088590;28;20025;-57
2022/01/28 09:58:06;;;;;;;21.85;12.55;;;26.80;61.10;;;;;;5088163;28;20367;-55
2022/01/28 10:00:34;;;;;;;24.90;12.95;;;26.80;60.90;;;;;;5088219;28;20216;-54
2022/01/28 10:03:12;;;;;;;19.77;12.80;;;26.90;61.00;;;;;;5087776;28;20021;-54
2022/01/28 10:05:41;;;;;;;25.55;12.63;;;26.90;61.00;;;;;;5087871;28;20032;-59
2022/01/28 10:08:27;;;;;;;21.95;13.18;;;26.80;60.90;;;;;;5087532;28;20114;-55
2022/01/28 10:11:05;;;;;;;18.17;12.77;;;26.80;61.00;;;;;;5087831;28;20039;-56
2022/01/28 10:13:55;;;;;;;18.75;12.70;;;26.80;61.00;;;;;;5087438;28;20040;-53
2022/01/28 10:16:24;;;;;;;22.65;13.75;;;26.80;60.70;;;;;;5087622;28;20028;-54
2022/01/28 10:18:54;;;;;;;17.83;12.88;;;26.70;60.50;;;;;;5086954;28;20051;-54
2022/01/28 10:21:21;;;;;;;32.97;13.15;;;26.70;60.40;;;;;;5086975;28;20020;-53
2022/01/28 10:24:06;;;;;;;23.50;13.45;;;26.70;60.30;;;;;;5087695;28;20020;-54
2022/01/28 10:27:09;;;;;;;19.92;12.52;;;26.70;60.40;;;;;;5087214;28;20312;-56
2022/01/28 10:29:38;;;;;;;23.67;11.32;;;26.70;60.70;;;;;;5085262;28;20032;-54
2022/01/28 10:32:08;;;;;;;59.22;12.75;;;26.70;61.10;;;;;;5079223;28;20161;-54
2022/01/28 10:34:36;;;;;;;30.52;10.93;;;26.60;61.20;;;;;;5087491;28;20123;-54
2022/01/28 10:37:20;;;;;;;27.02;10.40;;;26.70;61.60;;;;;;5086999;28;20020;-54
2022/01/28 10:40:00;;;;;;;27.98;10.30;;;26.60;61.70;;;;;;5087171;28;20024;-54
2022/01/28 10:42:36;;;;;;;19.08;9.73;;;26.60;61.90;;;;;;5087088;28;20020;-54
2022/01/28 10:45:11;;;;;;;18.20;9.13;;;26.60;62.10;;;;;;5087169;28;20052;-58
2022/01/28 10:47:46;;;;;;;20.25;10.32;;;26.60;62.30;;;;;;5087060;28;20239;-60
2022/01/28 10:50:28;;;;;;;21.63;9.32;;;26.60;62.40;;;;;;5087220;28;20028;-54
2022/01/28 10:53:15;;;;;;;18.15;9.38;;;26.60;62.60;;;;;;5086432;28;20021;-53
2022/01/28 10:55:45;;;;;;;19.67;7.53;;;26.60;62.60;;;;;;5086847;28;20024;-53
2022/01/28 10:58:17;;;;;;;16.90;7.97;;;26.50;62.50;;;;;;5086560;28;20031;-57
2022/01/28 11:01:01;;;;;;;17.92;7.53;;;26.50;62.50;;;;;;5087109;28;20044;-53
2022/01/28 11:03:28;;;;;;;19.15;7.40;;;26.50;62.30;;;;;;5086359;28;20024;-58
2022/01/28 11:05:59;;;;;;;25.85;7.80;;;26.40;62.00;;;;;;5086912;28;20037;-53
2022/01/28 11:08:34;;;;;;;29.15;7.88;;;26.40;61.90;;;;;;5086071;28;20040;-53
2022/01/28 11:11:01;;;;;;;23.90;7.18;;;26.40;61.70;;;;;;5086718;28;20025;-51
2022/01/28 11:13:29;;;;;;;24.27;6.82;;;26.40;61.50;;;;;;5086439;28;20048;-51
2022/01/28 11:15:55;;;;;;;19.90;6.70;;;26.30;60.80;;;;;;5087063;28;20308;-50
2022/01/28 11:18:23;;;;;;;18.25;6.00;;;26.30;60.80;;;;;;5086483;28;20029;-51
2022/01/28 11:21:05;;;;;;;19.58;6.30;;;26.30;60.50;;;;;;5085694;28;20091;-53
2022/01/28 11:23:48;;;;;;;16.90;5.95;;;26.40;60.20;;;;;;5084293;28;20024;-52
2022/01/28 11:26:28;;;;;;;15.45;6.45;;;26.30;60.30;;;;;;5084374;28;20115;-55
2022/01/28 11:29:02;;;;;;;21.48;6.70;;;26.30;60.00;;;;;;5084227;28;20083;-55
2022/01/28 11:31:51;;;;;;;19.67;6.47;;;26.30;59.90;;;;;;5066369;28;20213;-52
2022/01/28 11:34:27;;;;;;;19.35;5.95;;;26.30;59.70;;;;;;5066362;28;20308;-52
2022/01/28 11:36:56;;;;;;;60.72;8.15;;;26.30;59.60;;;;;;5085817;28;20031;-51
2022/01/28 11:39:32;;;;;;;20.58;6.45;;;26.20;59.60;;;;;;5086361;28;20208;-53
2022/01/28 11:42:22;;;;;;;22.63;6.10;;;26.30;59.70;;;;;;5086402;28;20016;-49
2022/01/28 11:44:51;;;;;;;21.50;6.45;;;26.30;59.70;;;;;;5086411;28;20197;-51
2022/01/28 11:47:26;;;;;;;17.60;6.22;;;26.30;59.50;;;;;;5085843;28;20041;-56
2022/01/28 11:50:09;;;;;;;19.67;6.65;;;26.30;59.50;;;;;;5085462;28;20078;-53
2022/01/28 11:52:41;;;;;;;17.13;6.57;;;26.30;59.30;;;;;;5086140;28;20021;-54
2022/01/28 11:55:28;;;;;;;16.33;5.97;;;26.30;59.10;;;;;;5085986;28;20017;-52
2022/01/28 11:58:04;;;;;;;22.17;6.57;;;26.40;59.30;;;;;;5085821;28;20047;-50
2022/01/28 12:00:50;;;;;;;30.23;7.03;;;26.30;59.20;;;;;;5085888;28;20305;-53
2022/01/28 12:03:21;;;;;;;23.70;6.88;;;26.30;59.30;;;;;;5085601;28;20029;-51
2022/01/28 12:05:56;;;;;;;26.45;6.90;;;26.40;59.50;;;;;;5085993;28;20032;-51
2022/01/28 12:08:27;;;;;;;18.48;6.75;;;26.40;59.60;;;;;;5085511;28;20060;-53
2022/01/28 12:10:54;;;;;;;24.37;7.47;;;26.40;59.80;;;;;;5085675;28;20175;-51
2022/01/28 12:13:48;;;;;;;19.92;7.20;;;26.40;59.90;;;;;;5085469;28;20013;-55
2022/01/28 12:16:26;;;;;;;19.75;7.15;;;26.50;60.10;;;;;;5067502;28;20032;-53
2022/01/28 12:18:58;;;;;;;31.45;7.75;;;26.50;60.40;;;;;;5085278;28;20020;-51
2022/01/28 12:21:26;;;;;;;20.10;7.20;;;26.60;60.70;;;;;;5085414;28;20016;-52
2022/01/28 12:24:14;;;;;;;29.50;8.25;;;26.60;60.80;;;;;;5085263;28;20047;-52
2022/01/28 12:27:17;;;;;;;19.98;7.80;;;26.60;60.80;;;;;;5084746;28;20023;-50
2022/01/28 12:29:47;;;;;;;21.52;7.15;;;26.60;60.90;;;;;;4984227;28;20274;-51
2022/01/28 12:32:20;;;;;;;24.40;7.53;;;26.60;61.10;;;;;;5068849;28;20091;-57
2022/01/28 12:34:47;;;;;;;24.92;7.25;;;26.70;61.20;;;;;;5085485;28;20028;-51
2022/01/28 12:37:14;;;;;;;25.85;7.88;;;26.70;61.20;;;;;;5084733;28;20048;-48
2022/01/28 12:39:51;;;;;;;24.17;7.10;;;26.70;61.20;;;;;;5085182;28;20220;-54
2022/01/28 12:44:55;;;;;;;20.05;7.97;;;26.70;61.30;;;;;;5085267;28;20025;-56
2022/01/28 12:47:23;;;;;;;25.90;9.63;;;26.80;61.10;;;;;;5084669;28;20024;-51
2022/01/28 12:50:05;;;;;;;31.30;10.68;;;26.80;60.70;;;;;;5066899;28;20066;-55
2022/01/28 12:52:34;;;;;;;25.90;9.65;;;26.70;60.40;;;;;;5084878;28;20181;-51
2022/01/28 12:55:01;;;;;;;30.10;9.70;;;26.80;60.90;;;;;;5085342;28;20028;-51
2022/01/28 12:57:27;;;;;;;33.35;10.18;;;26.70;61.00;;;;;;5084804;28;20012;-51
2022/01/28 12:59:54;;;;;;;37.95;9.88;;;26.70;61.10;;;;;;5084867;28;20028;-51
2022/01/28 13:02:21;;;;;;;27.83;9.48;;;26.70;61.30;;;;;;5084505;28;20048;-52
2022/01/28 13:05:12;;;;;;;26.15;9.25;;;26.80;61.40;;;;;;5085072;28;20083;-51
2022/01/28 13:10:30;;;;;;;22.83;8.32;;;26.80;61.60;;;;;;5084956;28;20040;-50
2022/01/28 13:13:09;;;;;;;25.48;8.30;;;26.80;61.60;;;;;;5084533;28;20021;-51
2022/01/28 13:15:37;;;;;;;21.17;8.85;;;26.80;61.60;;;;;;5084925;28;20239;-55
2022/01/28 13:18:05;;;;;;;21.05;7.63;;;26.80;61.80;;;;;;5066612;28;20023;-53
2022/01/28 13:20:35;;;;;;;17.98;7.70;;;26.90;62.10;;;;;;5066499;28;20205;-53
2022/01/28 13:23:04;;;;;;;57.88;10.85;;;26.90;62.30;;;;;;5083680;28;20035;-52
2022/01/28 13:25:31;;;;;;;20.13;7.30;;;26.90;62.70;;;;;;5084504;28;20074;-59
2022/01/28 13:28:05;;;;;;;22.02;7.43;;;26.90;61.80;;;;;;5084412;28;20062;-51
2022/01/28 13:30:38;;;;;;;31.27;7.15;;;26.90;61.30;;;;;;5084496;28;20027;-54
2022/01/28 13:33:07;;;;;;;67.25;12.35;;;26.90;61.10;;;;;;5066146;28;20263;-50
2022/01/28 13:35:37;;;;;;;64.07;11.57;;;26.90;61.20;;;;;;5084547;28;20174;-54
2022/01/28 13:38:15;;;;;;;47.90;9.07;;;27.00;61.20;;;;;;5084050;28;20043;-50
2022/01/28 13:40:42;;;;;;;34.35;8.60;;;27.00;61.00;;;;;;5084713;28;20293;-51
2022/01/28 13:43:13;;;;;;;58.00;11.27;;;27.00;61.00;;;;;;5084317;28;20032;-55
2022/01/28 13:45:54;;;;;;;32.00;8.50;;;27.00;61.20;;;;;;5084357;28;20297;-53
2022/01/28 13:48:33;;;;;;;30.73;7.53;;;27.00;60.40;;;;;;5083848;28;20044;-53
2022/01/28 13:51:07;;;;;;;32.67;8.13;;;27.10;60.50;;;;;;5084100;28;20037;-52
2022/01/28 13:56:42;;;;;;;56.15;10.13;;;27.10;60.00;;;;;;5084116;28;20205;-52
2022/01/28 13:59:16;;;;;;;25.58;7.82;;;27.10;59.50;;;;;;5084094;28;20189;-55
2022/01/28 14:01:47;;;;;;;32.42;8.32;;;27.20;59.50;;;;;;5084096;28;20184;-52
2022/01/28 14:04:21;;;;;;;27.58;7.38;;;27.20;59.60;;;;;;5084103;28;20058;-52
2022/01/28 14:06:48;;;;;;;27.67;7.15;;;27.20;59.50;;;;;;5083887;28;20028;-51
2022/01/28 14:09:19;;;;;;;26.33;7.43;;;27.20;59.30;;;;;;5083891;28;20115;-52
2022/01/28 14:11:49;;;;;;;18.35;6.18;;;27.20;58.90;;;;;;5084016;28;20297;-50
2022/01/28 14:14:29;;;;;;;18.45;6.10;;;27.20;58.50;;;;;;5084403;28;20032;-47
2022/01/28 14:16:59;;;;;;;10.00;5.20;;;27.30;58.60;;;;;;5099742;28;20212;-51
2022/01/28 14:19:28;;;;;;;17.65;5.15;;;27.30;58.10;;;;;;5097590;28;20028;-52
2022/01/28 14:21:55;;;;;;;18.48;5.80;;;27.30;58.00;;;;;;5091360;28;20023;-48